sensor_id;sensor_type;location;lat;lon;timestamp;P1;durP1;ratioP1;P2;durP2;ratioP2
21181;SDS011;10749;46.296;7.524;2023-02-15T00:00:02;4.20;;;1.37;;
21181;SDS011;10749;46.296;7.524;2023-02-15T00:02:33;2.93;;;1.70;;
21181;SDS011;10749;46.296;7.524;2023-02-15T00:04:58;2.60;;;1.50;;
21181;SDS011;10749;46.296;7.524;2023-02-15T00:07:23;2.17;;;1.63;;
21181;SDS011;10749;46.296;7.524;2023-02-15T00:09:48;3.17;;;1.70;;
21181;SDS011;10749;46.296;7.524;2023-02-15T00:12:14;2.57;;;1.53;;
21181;SDS011;10749;46.296;7.524;2023-02-15T00:14:40;2.07;;;1.30;;
21181;SDS011;10749;46.296;7.524;2023-02-15T00:17:07;2.03;;;1.30;;
21181;SDS011;10749;46.296;7.524;2023-02-15T00:19:32;2.57;;;1.30;;
21181;SDS011;10749;46.296;7.524;2023-02-15T00:21:57;3.10;;;1.53;;
21181;SDS011;10749;46.296;7.524;2023-02-15T00:24:23;3.00;;;1.40;;
21181;SDS011;10749;46.296;7.524;2023-02-15T00:26:48;3.37;;;1.70;;
21181;SDS011;10749;46.296;7.524;2023-02-15T00:29:14;2.60;;;1.57;;
21181;SDS011;10749;46.296;7.524;2023-02-15T00:31:41;2.93;;;1.70;;
21181;SDS011;10749;46.296;7.524;2023-02-15T00:34:07;2.60;;;1.50;;
21181;SDS011;10749;46.296;7.524;2023-02-15T00:36:40;2.93;;;1.60;;
21181;SDS011;10749;46.296;7.524;2023-02-15T00:39:07;3.43;;;1.50;;
21181;SDS011;10749;46.296;7.524;2023-02-15T00:41:33;2.93;;;1.50;;
21181;SDS011;10749;46.296;7.524;2023-02-15T00:43:59;2.53;;;1.43;;
21181;SDS011;10749;46.296;7.524;2023-02-15T00:46:24;2.40;;;1.67;;
21181;SDS011;10749;46.296;7.524;2023-02-15T00:48:50;2.03;;;1.30;;
21181;SDS011;10749;46.296;7.524;2023-02-15T00:51:15;2.60;;;1.70;;
21181;SDS011;10749;46.296;7.524;2023-02-15T00:53:42;3.47;;;1.60;;
21181;SDS011;10749;46.296;7.524;2023-02-15T00:56:09;2.23;;;1.53;;
21181;SDS011;10749;46.296;7.524;2023-02-15T00:58:34;4.63;;;1.73;;
21181;SDS011;10749;46.296;7.524;2023-02-15T01:01:06;4.90;;;1.70;;
21181;SDS011;10749;46.296;7.524;2023-02-15T01:03:33;4.50;;;1.93;;
21181;SDS011;10749;46.296;7.524;2023-02-15T01:05:59;4.60;;;1.63;;
21181;SDS011;10749;46.296;7.524;2023-02-15T01:08:25;3.43;;;1.50;;
21181;SDS011;10749;46.296;7.524;2023-02-15T01:10:50;2.27;;;1.50;;
21181;SDS011;10749;46.296;7.524;2023-02-15T01:13:16;2.00;;;1.10;;
21181;SDS011;10749;46.296;7.524;2023-02-15T01:15:42;3.93;;;1.50;;
21181;SDS011;10749;46.296;7.524;2023-02-15T01:18:08;3.40;;;1.80;;
21181;SDS011;10749;46.296;7.524;2023-02-15T01:20:35;2.67;;;1.30;;
21181;SDS011;10749;46.296;7.524;2023-02-15T01:23:03;2.27;;;1.20;;
21181;SDS011;10749;46.296;7.524;2023-02-15T01:25:29;3.30;;;1.43;;
21181;SDS011;10749;46.296;7.524;2023-02-15T01:27:54;1.97;;;1.30;;
21181;SDS011;10749;46.296;7.524;2023-02-15T01:30:20;2.67;;;1.37;;
21181;SDS011;10749;46.296;7.524;2023-02-15T01:32:45;2.60;;;1.40;;
21181;SDS011;10749;46.296;7.524;2023-02-15T01:35:10;3.60;;;1.40;;
21181;SDS011;10749;46.296;7.524;2023-02-15T01:37:36;2.50;;;1.30;;
21181;SDS011;10749;46.296;7.524;2023-02-15T01:40:03;1.93;;;1.10;;
21181;SDS011;10749;46.296;7.524;2023-02-15T01:42:30;2.33;;;1.27;;
21181;SDS011;10749;46.296;7.524;2023-02-15T01:44:57;2.37;;;1.37;;
21181;SDS011;10749;46.296;7.524;2023-02-15T01:47:32;1.93;;;1.10;;
21181;SDS011;10749;46.296;7.524;2023-02-15T01:52:40;3.20;;;1.40;;
21181;SDS011;10749;46.296;7.524;2023-02-15T01:55:32;2.27;;;1.13;;
21181;SDS011;10749;46.296;7.524;2023-02-15T01:58:01;2.60;;;1.50;;
21181;SDS011;10749;46.296;7.524;2023-02-15T02:00:27;3.13;;;1.50;;
21181;SDS011;10749;46.296;7.524;2023-02-15T02:02:54;3.70;;;1.63;;
21181;SDS011;10749;46.296;7.524;2023-02-15T02:05:21;2.37;;;1.37;;
21181;SDS011;10749;46.296;7.524;2023-02-15T02:07:47;1.60;;;1.03;;
21181;SDS011;10749;46.296;7.524;2023-02-15T02:10:17;4.93;;;1.40;;
21181;SDS011;10749;46.296;7.524;2023-02-15T02:12:45;3.43;;;1.30;;
21181;SDS011;10749;46.296;7.524;2023-02-15T02:15:13;2.90;;;1.40;;
21181;SDS011;10749;46.296;7.524;2023-02-15T02:23:05;4.03;;;1.40;;
21181;SDS011;10749;46.296;7.524;2023-02-15T02:30:53;3.10;;;1.23;;
21181;SDS011;10749;46.296;7.524;2023-02-15T02:41:43;4.20;;;1.30;;
21181;SDS011;10749;46.296;7.524;2023-02-15T02:44:19;1.70;;;1.20;;
21181;SDS011;10749;46.296;7.524;2023-02-15T02:47:04;3.03;;;1.40;;
21181;SDS011;10749;46.296;7.524;2023-02-15T02:49:35;2.60;;;1.20;;
21181;SDS011;10749;46.296;7.524;2023-02-15T02:52:04;3.90;;;1.20;;
21181;SDS011;10749;46.296;7.524;2023-02-15T02:54:32;3.43;;;0.90;;
21181;SDS011;10749;46.296;7.524;2023-02-15T02:57:00;2.70;;;1.03;;
21181;SDS011;10749;46.296;7.524;2023-02-15T02:59:37;3.90;;;1.23;;
21181;SDS011;10749;46.296;7.524;2023-02-15T03:04:39;3.63;;;1.00;;
21181;SDS011;10749;46.296;7.524;2023-02-15T03:07:10;1.80;;;1.13;;
21181;SDS011;10749;46.296;7.524;2023-02-15T03:09:41;3.07;;;1.30;;
21181;SDS011;10749;46.296;7.524;2023-02-15T03:12:26;1.63;;;0.90;;
21181;SDS011;10749;46.296;7.524;2023-02-15T03:14:59;1.87;;;1.10;;
21181;SDS011;10749;46.296;7.524;2023-02-15T03:17:30;1.80;;;1.10;;
21181;SDS011;10749;46.296;7.524;2023-02-15T03:19:57;1.67;;;0.80;;
21181;SDS011;10749;46.296;7.524;2023-02-15T03:22:30;1.90;;;1.10;;
21181;SDS011;10749;46.296;7.524;2023-02-15T03:25:09;3.10;;;0.97;;
21181;SDS011;10749;46.296;7.524;2023-02-15T03:27:44;3.73;;;1.43;;
21181;SDS011;10749;46.296;7.524;2023-02-15T03:30:12;4.23;;;1.50;;
21181;SDS011;10749;46.296;7.524;2023-02-15T03:32:40;3.17;;;1.80;;
21181;SDS011;10749;46.296;7.524;2023-02-15T03:35:08;6.67;;;1.80;;
21181;SDS011;10749;46.296;7.524;2023-02-15T03:37:41;2.57;;;1.50;;
21181;SDS011;10749;46.296;7.524;2023-02-15T03:43:06;1.97;;;0.90;;
21181;SDS011;10749;46.296;7.524;2023-02-15T03:45:38;2.10;;;1.20;;
21181;SDS011;10749;46.296;7.524;2023-02-15T03:48:19;2.20;;;1.27;;
21181;SDS011;10749;46.296;7.524;2023-02-15T03:50:49;2.83;;;0.80;;
21181;SDS011;10749;46.296;7.524;2023-02-15T03:53:35;1.47;;;0.80;;
21181;SDS011;10749;46.296;7.524;2023-02-15T03:56:02;2.70;;;1.00;;
21181;SDS011;10749;46.296;7.524;2023-02-15T03:58:27;1.50;;;1.00;;
21181;SDS011;10749;46.296;7.524;2023-02-15T04:01:26;3.37;;;0.97;;
21181;SDS011;10749;46.296;7.524;2023-02-15T04:04:18;2.20;;;0.90;;
21181;SDS011;10749;46.296;7.524;2023-02-15T04:06:45;2.00;;;0.70;;
21181;SDS011;10749;46.296;7.524;2023-02-15T04:09:11;1.20;;;0.60;;
21181;SDS011;10749;46.296;7.524;2023-02-15T04:11:56;2.73;;;0.90;;
21181;SDS011;10749;46.296;7.524;2023-02-15T04:14:21;2.70;;;0.80;;
21181;SDS011;10749;46.296;7.524;2023-02-15T04:17:05;1.47;;;0.77;;
21181;SDS011;10749;46.296;7.524;2023-02-15T04:19:32;2.43;;;0.90;;
21181;SDS011;10749;46.296;7.524;2023-02-15T04:22:16;2.30;;;0.77;;
21181;SDS011;10749;46.296;7.524;2023-02-15T04:24:59;1.97;;;0.70;;
21181;SDS011;10749;46.296;7.524;2023-02-15T04:27:34;1.73;;;0.70;;
21181;SDS011;10749;46.296;7.524;2023-02-15T04:30:00;1.20;;;0.60;;
21181;SDS011;10749;46.296;7.524;2023-02-15T04:32:25;4.77;;;1.00;;
21181;SDS011;10749;46.296;7.524;2023-02-15T04:34:51;1.40;;;0.80;;
21181;SDS011;10749;46.296;7.524;2023-02-15T04:37:16;1.20;;;0.80;;
21181;SDS011;10749;46.296;7.524;2023-02-15T04:39:42;2.57;;;0.60;;
21181;SDS011;10749;46.296;7.524;2023-02-15T04:42:07;2.80;;;0.80;;
21181;SDS011;10749;46.296;7.524;2023-02-15T04:44:32;3.13;;;0.90;;
21181;SDS011;10749;46.296;7.524;2023-02-15T04:46:57;1.70;;;0.87;;
21181;SDS011;10749;46.296;7.524;2023-02-15T04:49:23;1.47;;;0.83;;
21181;SDS011;10749;46.296;7.524;2023-02-15T04:51:48;1.90;;;0.70;;
21181;SDS011;10749;46.296;7.524;2023-02-15T04:54:13;2.40;;;0.83;;
21181;SDS011;10749;46.296;7.524;2023-02-15T04:56:39;1.47;;;0.63;;
21181;SDS011;10749;46.296;7.524;2023-02-15T04:59:04;0.83;;;0.70;;
21181;SDS011;10749;46.296;7.524;2023-02-15T05:01:30;1.57;;;0.60;;
21181;SDS011;10749;46.296;7.524;2023-02-15T05:03:55;1.20;;;0.80;;
21181;SDS011;10749;46.296;7.524;2023-02-15T05:06:21;1.73;;;0.50;;
21181;SDS011;10749;46.296;7.524;2023-02-15T05:08:46;0.97;;;0.60;;
21181;SDS011;10749;46.296;7.524;2023-02-15T05:11:12;2.47;;;0.60;;
21181;SDS011;10749;46.296;7.524;2023-02-15T05:13:37;1.27;;;0.60;;
21181;SDS011;10749;46.296;7.524;2023-02-15T05:16:02;1.60;;;0.50;;
21181;SDS011;10749;46.296;7.524;2023-02-15T05:18:27;1.30;;;0.70;;
21181;SDS011;10749;46.296;7.524;2023-02-15T05:20:53;2.83;;;0.70;;
21181;SDS011;10749;46.296;7.524;2023-02-15T05:23:18;2.27;;;0.80;;
21181;SDS011;10749;46.296;7.524;2023-02-15T05:25:49;1.00;;;0.70;;
21181;SDS011;10749;46.296;7.524;2023-02-15T05:28:34;1.87;;;0.87;;
21181;SDS011;10749;46.296;7.524;2023-02-15T05:33:34;2.80;;;0.93;;
21181;SDS011;10749;46.296;7.524;2023-02-15T05:36:00;1.37;;;0.70;;
21181;SDS011;10749;46.296;7.524;2023-02-15T05:38:26;2.33;;;0.80;;
21181;SDS011;10749;46.296;7.524;2023-02-15T05:40:51;0.87;;;0.60;;
21181;SDS011;10749;46.296;7.524;2023-02-15T05:43:17;1.10;;;0.77;;
21181;SDS011;10749;46.296;7.524;2023-02-15T05:45:49;2.40;;;0.83;;
21181;SDS011;10749;46.296;7.524;2023-02-15T05:48:17;0.87;;;0.67;;
21181;SDS011;10749;46.296;7.524;2023-02-15T05:50:43;1.93;;;0.80;;
21181;SDS011;10749;46.296;7.524;2023-02-15T05:53:09;1.33;;;0.83;;
21181;SDS011;10749;46.296;7.524;2023-02-15T05:55:34;1.40;;;0.80;;
21181;SDS011;10749;46.296;7.524;2023-02-15T05:58:02;1.47;;;0.70;;
21181;SDS011;10749;46.296;7.524;2023-02-15T06:00:27;1.30;;;0.70;;
21181;SDS011;10749;46.296;7.524;2023-02-15T06:02:53;1.87;;;0.80;;
21181;SDS011;10749;46.296;7.524;2023-02-15T06:05:18;2.37;;;0.80;;
21181;SDS011;10749;46.296;7.524;2023-02-15T06:07:43;3.50;;;1.00;;
21181;SDS011;10749;46.296;7.524;2023-02-15T06:10:09;1.40;;;0.90;;
21181;SDS011;10749;46.296;7.524;2023-02-15T06:12:35;1.60;;;0.80;;
21181;SDS011;10749;46.296;7.524;2023-02-15T06:15:00;2.63;;;0.80;;
21181;SDS011;10749;46.296;7.524;2023-02-15T06:17:25;1.10;;;0.50;;
21181;SDS011;10749;46.296;7.524;2023-02-15T06:19:51;0.93;;;0.50;;
21181;SDS011;10749;46.296;7.524;2023-02-15T06:22:16;2.03;;;0.80;;
21181;SDS011;10749;46.296;7.524;2023-02-15T06:24:41;1.47;;;0.80;;
21181;SDS011;10749;46.296;7.524;2023-02-15T06:27:07;2.30;;;1.00;;
21181;SDS011;10749;46.296;7.524;2023-02-15T06:29:34;2.97;;;0.90;;
21181;SDS011;10749;46.296;7.524;2023-02-15T06:31:59;2.33;;;0.70;;
21181;SDS011;10749;46.296;7.524;2023-02-15T06:34:25;2.10;;;0.83;;
21181;SDS011;10749;46.296;7.524;2023-02-15T06:36:50;2.20;;;0.60;;
21181;SDS011;10749;46.296;7.524;2023-02-15T06:39:15;2.83;;;0.70;;
21181;SDS011;10749;46.296;7.524;2023-02-15T06:41:41;2.10;;;0.77;;
21181;SDS011;10749;46.296;7.524;2023-02-15T06:44:06;3.13;;;0.77;;
21181;SDS011;10749;46.296;7.524;2023-02-15T06:46:32;2.07;;;0.77;;
21181;SDS011;10749;46.296;7.524;2023-02-15T06:48:57;1.87;;;0.97;;
21181;SDS011;10749;46.296;7.524;2023-02-15T06:51:22;8.47;;;1.20;;
21181;SDS011;10749;46.296;7.524;2023-02-15T06:53:47;3.53;;;1.20;;
21181;SDS011;10749;46.296;7.524;2023-02-15T06:56:13;2.87;;;1.10;;
21181;SDS011;10749;46.296;7.524;2023-02-15T06:58:39;2.83;;;0.90;;
21181;SDS011;10749;46.296;7.524;2023-02-15T07:01:05;4.60;;;1.50;;
21181;SDS011;10749;46.296;7.524;2023-02-15T07:03:31;7.87;;;4.47;;
21181;SDS011;10749;46.296;7.524;2023-02-15T07:05:58;6.20;;;4.10;;
21181;SDS011;10749;46.296;7.524;2023-02-15T07:08:25;7.83;;;3.60;;
21181;SDS011;10749;46.296;7.524;2023-02-15T07:10:51;7.80;;;4.43;;
21181;SDS011;10749;46.296;7.524;2023-02-15T07:13:18;7.87;;;3.93;;
21181;SDS011;10749;46.296;7.524;2023-02-15T07:15:44;7.30;;;4.27;;
21181;SDS011;10749;46.296;7.524;2023-02-15T07:18:10;6.93;;;3.67;;
21181;SDS011;10749;46.296;7.524;2023-02-15T07:20:36;6.77;;;3.37;;
21181;SDS011;10749;46.296;7.524;2023-02-15T07:23:01;9.03;;;1.93;;
21181;SDS011;10749;46.296;7.524;2023-02-15T07:25:29;3.57;;;1.70;;
21181;SDS011;10749;46.296;7.524;2023-02-15T07:28:00;6.43;;;2.20;;
21181;SDS011;10749;46.296;7.524;2023-02-15T07:30:27;2.87;;;1.67;;
21181;SDS011;10749;46.296;7.524;2023-02-15T07:32:57;2.73;;;1.27;;
21181;SDS011;10749;46.296;7.524;2023-02-15T07:35:48;6.13;;;1.40;;
21181;SDS011;10749;46.296;7.524;2023-02-15T07:38:15;1.60;;;0.90;;
21181;SDS011;10749;46.296;7.524;2023-02-15T07:40:41;3.63;;;1.33;;
21181;SDS011;10749;46.296;7.524;2023-02-15T07:43:06;4.07;;;1.20;;
21181;SDS011;10749;46.296;7.524;2023-02-15T07:45:32;2.20;;;1.00;;
21181;SDS011;10749;46.296;7.524;2023-02-15T07:47:57;7.57;;;1.37;;
21181;SDS011;10749;46.296;7.524;2023-02-15T07:50:22;7.17;;;1.50;;
21181;SDS011;10749;46.296;7.524;2023-02-15T07:52:48;4.77;;;1.40;;
21181;SDS011;10749;46.296;7.524;2023-02-15T07:55:13;5.70;;;1.70;;
21181;SDS011;10749;46.296;7.524;2023-02-15T07:57:42;6.57;;;1.57;;
21181;SDS011;10749;46.296;7.524;2023-02-15T08:00:09;4.53;;;1.80;;
21181;SDS011;10749;46.296;7.524;2023-02-15T08:02:36;5.40;;;1.50;;
21181;SDS011;10749;46.296;7.524;2023-02-15T08:05:02;4.70;;;1.40;;
21181;SDS011;10749;46.296;7.524;2023-02-15T08:07:27;6.00;;;1.50;;
21181;SDS011;10749;46.296;7.524;2023-02-15T08:09:53;7.63;;;1.67;;
21181;SDS011;10749;46.296;7.524;2023-02-15T08:12:18;5.20;;;1.40;;
21181;SDS011;10749;46.296;7.524;2023-02-15T08:14:44;3.93;;;1.47;;
21181;SDS011;10749;46.296;7.524;2023-02-15T08:17:09;4.70;;;1.27;;
21181;SDS011;10749;46.296;7.524;2023-02-15T08:19:35;3.63;;;1.50;;
21181;SDS011;10749;46.296;7.524;2023-02-15T08:22:07;4.83;;;1.60;;
21181;SDS011;10749;46.296;7.524;2023-02-15T08:24:36;3.73;;;1.50;;
21181;SDS011;10749;46.296;7.524;2023-02-15T08:27:02;4.77;;;1.73;;
21181;SDS011;10749;46.296;7.524;2023-02-15T08:29:29;3.40;;;1.80;;
21181;SDS011;10749;46.296;7.524;2023-02-15T08:31:56;3.87;;;1.33;;
21181;SDS011;10749;46.296;7.524;2023-02-15T08:34:27;4.87;;;1.43;;
21181;SDS011;10749;46.296;7.524;2023-02-15T08:36:53;8.03;;;1.40;;
21181;SDS011;10749;46.296;7.524;2023-02-15T08:39:19;2.83;;;1.07;;
21181;SDS011;10749;46.296;7.524;2023-02-15T08:41:45;2.63;;;1.20;;
21181;SDS011;10749;46.296;7.524;2023-02-15T08:44:11;6.20;;;1.17;;
21181;SDS011;10749;46.296;7.524;2023-02-15T08:46:38;5.17;;;1.40;;
21181;SDS011;10749;46.296;7.524;2023-02-15T08:49:05;7.00;;;1.63;;
21181;SDS011;10749;46.296;7.524;2023-02-15T08:51:32;2.03;;;1.00;;
21181;SDS011;10749;46.296;7.524;2023-02-15T08:53:59;2.37;;;1.13;;
21181;SDS011;10749;46.296;7.524;2023-02-15T08:56:27;3.77;;;1.20;;
21181;SDS011;10749;46.296;7.524;2023-02-15T08:58:55;1.83;;;1.00;;
21181;SDS011;10749;46.296;7.524;2023-02-15T09:01:25;7.17;;;1.77;;
21181;SDS011;10749;46.296;7.524;2023-02-15T09:04:14;5.90;;;2.30;;
21181;SDS011;10749;46.296;7.524;2023-02-15T09:06:40;8.63;;;2.40;;
21181;SDS011;10749;46.296;7.524;2023-02-15T09:09:07;5.63;;;2.00;;
21181;SDS011;10749;46.296;7.524;2023-02-15T09:11:35;4.47;;;1.90;;
21181;SDS011;10749;46.296;7.524;2023-02-15T09:14:04;4.13;;;1.70;;
21181;SDS011;10749;46.296;7.524;2023-02-15T09:16:31;4.00;;;1.83;;
21181;SDS011;10749;46.296;7.524;2023-02-15T09:18:58;6.07;;;2.13;;
21181;SDS011;10749;46.296;7.524;2023-02-15T09:21:24;3.57;;;1.80;;
21181;SDS011;10749;46.296;7.524;2023-02-15T09:23:51;3.33;;;1.70;;
21181;SDS011;10749;46.296;7.524;2023-02-15T09:26:21;3.43;;;1.73;;
21181;SDS011;10749;46.296;7.524;2023-02-15T09:28:51;4.87;;;1.80;;
21181;SDS011;10749;46.296;7.524;2023-02-15T09:31:18;3.63;;;1.80;;
21181;SDS011;10749;46.296;7.524;2023-02-15T09:33:45;4.30;;;1.63;;
21181;SDS011;10749;46.296;7.524;2023-02-15T09:36:13;5.33;;;1.90;;
21181;SDS011;10749;46.296;7.524;2023-02-15T09:38:41;8.97;;;1.90;;
21181;SDS011;10749;46.296;7.524;2023-02-15T09:41:10;4.53;;;1.70;;
21181;SDS011;10749;46.296;7.524;2023-02-15T09:44:04;6.87;;;1.80;;
21181;SDS011;10749;46.296;7.524;2023-02-15T09:46:27;2.87;;;1.53;;
21181;SDS011;10749;46.296;7.524;2023-02-15T09:49:11;5.80;;;1.50;;
21181;SDS011;10749;46.296;7.524;2023-02-15T09:57:37;5.30;;;1.60;;
21181;SDS011;10749;46.296;7.524;2023-02-15T10:08:35;2.20;;;1.00;;
21181;SDS011;10749;46.296;7.524;2023-02-15T10:20:20;2.67;;;1.40;;
21181;SDS011;10749;46.296;7.524;2023-02-15T10:28:53;3.63;;;1.20;;
21181;SDS011;10749;46.296;7.524;2023-02-15T10:31:25;4.83;;;1.30;;
21181;SDS011;10749;46.296;7.524;2023-02-15T10:34:14;5.57;;;1.53;;
21181;SDS011;10749;46.296;7.524;2023-02-15T10:42:52;7.93;;;2.00;;
21181;SDS011;10749;46.296;7.524;2023-02-15T10:45:43;4.20;;;1.43;;
21181;SDS011;10749;46.296;7.524;2023-02-15T10:56:46;3.20;;;0.90;;
21181;SDS011;10749;46.296;7.524;2023-02-15T11:07:52;4.77;;;1.10;;
21181;SDS011;10749;46.296;7.524;2023-02-15T11:12:55;3.53;;;1.30;;
21181;SDS011;10749;46.296;7.524;2023-02-15T11:15:28;4.20;;;1.20;;
21181;SDS011;10749;46.296;7.524;2023-02-15T11:18:01;1.80;;;1.00;;
21181;SDS011;10749;46.296;7.524;2023-02-15T11:20:46;5.70;;;1.13;;
21181;SDS011;10749;46.296;7.524;2023-02-15T11:23:19;6.50;;;1.20;;
21181;SDS011;10749;46.296;7.524;2023-02-15T11:25:46;2.67;;;1.10;;
21181;SDS011;10749;46.296;7.524;2023-02-15T11:28:22;3.73;;;1.10;;
21181;SDS011;10749;46.296;7.524;2023-02-15T11:30:54;4.40;;;1.30;;
21181;SDS011;10749;46.296;7.524;2023-02-15T11:33:23;2.30;;;0.90;;
21181;SDS011;10749;46.296;7.524;2023-02-15T11:35:56;5.00;;;1.50;;
21181;SDS011;10749;46.296;7.524;2023-02-15T11:38:28;4.70;;;2.20;;
21181;SDS011;10749;46.296;7.524;2023-02-15T11:40:57;3.87;;;1.97;;
21181;SDS011;10749;46.296;7.524;2023-02-15T11:46:04;2.37;;;1.23;;
21181;SDS011;10749;46.296;7.524;2023-02-15T11:48:30;3.03;;;1.40;;
21181;SDS011;10749;46.296;7.524;2023-02-15T11:50:57;2.95;;;1.50;;
21181;SDS011;10749;46.296;7.524;2023-02-15T11:53:23;1.88;;;0.93;;
21181;SDS011;10749;46.296;7.524;2023-02-15T11:55:53;4.25;;;0.90;;
21181;SDS011;10749;46.296;7.524;2023-02-15T12:03:48;1.55;;;0.73;;
21181;SDS011;10749;46.296;7.524;2023-02-15T12:06:21;2.33;;;0.85;;
21181;SDS011;10749;46.296;7.524;2023-02-15T12:09:33;2.45;;;0.63;;
21181;SDS011;10749;46.296;7.524;2023-02-15T12:11:47;2.58;;;0.70;;
21181;SDS011;10749;46.296;7.524;2023-02-15T12:14:12;1.73;;;0.70;;
21181;SDS011;10749;46.296;7.524;2023-02-15T12:16:45;3.30;;;0.57;;
21181;SDS011;10749;46.296;7.524;2023-02-15T12:19:18;3.65;;;0.70;;
21181;SDS011;10749;46.296;7.524;2023-02-15T12:21:48;2.78;;;0.65;;
21181;SDS011;10749;46.296;7.524;2023-02-15T12:24:29;1.50;;;0.70;;
21181;SDS011;10749;46.296;7.524;2023-02-15T12:27:01;2.33;;;0.50;;
21181;SDS011;10749;46.296;7.524;2023-02-15T12:29:50;4.00;;;0.70;;
21181;SDS011;10749;46.296;7.524;2023-02-15T12:32:22;2.88;;;0.65;;
21181;SDS011;10749;46.296;7.524;2023-02-15T12:34:51;3.22;;;0.50;;
21181;SDS011;10749;46.296;7.524;2023-02-15T12:37:25;2.58;;;0.65;;
21181;SDS011;10749;46.296;7.524;2023-02-15T12:39:57;1.73;;;0.57;;
21181;SDS011;10749;46.296;7.524;2023-02-15T12:42:24;5.28;;;0.77;;
21181;SDS011;10749;46.296;7.524;2023-02-15T12:44:55;2.58;;;0.65;;
21181;SDS011;10749;46.296;7.524;2023-02-15T12:47:26;5.18;;;0.73;;
21181;SDS011;10749;46.296;7.524;2023-02-15T12:50:05;1.23;;;0.70;;
21181;SDS011;10749;46.296;7.524;2023-02-15T12:52:42;2.75;;;1.08;;
21181;SDS011;10749;46.296;7.524;2023-02-15T12:55:23;1.98;;;0.80;;
21181;SDS011;10749;46.296;7.524;2023-02-15T12:58:04;3.33;;;0.90;;
21181;SDS011;10749;46.296;7.524;2023-02-15T13:00:48;2.90;;;1.00;;
21181;SDS011;10749;46.296;7.524;2023-02-15T13:03:40;3.08;;;0.80;;
21181;SDS011;10749;46.296;7.524;2023-02-15T13:06:25;4.07;;;0.70;;
21181;SDS011;10749;46.296;7.524;2023-02-15T13:08:55;2.40;;;0.88;;
21181;SDS011;10749;46.296;7.524;2023-02-15T13:11:30;1.98;;;0.60;;
21181;SDS011;10749;46.296;7.524;2023-02-15T13:14:00;3.28;;;0.68;;
21181;SDS011;10749;46.296;7.524;2023-02-15T13:16:41;1.35;;;0.55;;
21181;SDS011;10749;46.296;7.524;2023-02-15T13:19:18;1.90;;;0.80;;
21181;SDS011;10749;46.296;7.524;2023-02-15T13:21:51;2.05;;;0.75;;
21181;SDS011;10749;46.296;7.524;2023-02-15T13:24:26;2.35;;;0.68;;
21181;SDS011;10749;46.296;7.524;2023-02-15T13:26:55;4.78;;;0.85;;
21181;SDS011;10749;46.296;7.524;2023-02-15T13:29:29;7.20;;;0.82;;
21181;SDS011;10749;46.296;7.524;2023-02-15T13:32:00;2.95;;;0.75;;
21181;SDS011;10749;46.296;7.524;2023-02-15T13:34:48;1.15;;;0.50;;
21181;SDS011;10749;46.296;7.524;2023-02-15T13:37:19;1.45;;;0.60;;
21181;SDS011;10749;46.296;7.524;2023-02-15T13:42:28;5.28;;;0.90;;
21181;SDS011;10749;46.296;7.524;2023-02-15T13:50:32;4.05;;;0.77;;
21181;SDS011;10749;46.296;7.524;2023-02-15T14:01:44;3.92;;;0.93;;
21181;SDS011;10749;46.296;7.524;2023-02-15T14:10:02;2.35;;;0.85;;
21181;SDS011;10749;46.296;7.524;2023-02-15T14:12:49;4.50;;;1.10;;
21181;SDS011;10749;46.296;7.524;2023-02-15T14:20:49;3.78;;;1.20;;
21181;SDS011;10749;46.296;7.524;2023-02-15T14:23:46;3.75;;;1.30;;
21181;SDS011;10749;46.296;7.524;2023-02-15T14:31:51;5.60;;;1.35;;
21181;SDS011;10749;46.296;7.524;2023-02-15T14:43:11;3.40;;;1.20;;
21181;SDS011;10749;46.296;7.524;2023-02-15T14:46:07;3.08;;;1.30;;
21181;SDS011;10749;46.296;7.524;2023-02-15T14:48:45;10.23;;;5.18;;
21181;SDS011;10749;46.296;7.524;2023-02-15T14:56:40;17.48;;;6.18;;
21181;SDS011;10749;46.296;7.524;2023-02-15T14:59:21;8.68;;;3.70;;
21181;SDS011;10749;46.296;7.524;2023-02-15T15:01:57;17.20;;;7.15;;
21181;SDS011;10749;46.296;7.524;2023-02-15T15:07:22;7.38;;;2.78;;
21181;SDS011;10749;46.296;7.524;2023-02-15T15:09:57;8.23;;;2.30;;
21181;SDS011;10749;46.296;7.524;2023-02-15T15:14:50;7.97;;;3.10;;
21181;SDS011;10749;46.296;7.524;2023-02-15T15:23:36;8.25;;;2.55;;
21181;SDS011;10749;46.296;7.524;2023-02-15T15:25:41;4.55;;;2.63;;
21181;SDS011;10749;46.296;7.524;2023-02-15T15:28:06;8.90;;;2.53;;
21181;SDS011;10749;46.296;7.524;2023-02-15T15:32:59;6.17;;;2.40;;
21181;SDS011;10749;46.296;7.524;2023-02-15T15:38:52;4.80;;;2.47;;
21181;SDS011;10749;46.296;7.524;2023-02-15T15:49:45;5.77;;;2.83;;
21181;SDS011;10749;46.296;7.524;2023-02-15T15:52:15;4.23;;;3.13;;
21181;SDS011;10749;46.296;7.524;2023-02-15T15:54:43;13.77;;;5.23;;
21181;SDS011;10749;46.296;7.524;2023-02-15T15:57:28;20.10;;;7.60;;
21181;SDS011;10749;46.296;7.524;2023-02-15T15:59:54;25.53;;;11.20;;
21181;SDS011;10749;46.296;7.524;2023-02-15T16:02:24;10.47;;;5.73;;
21181;SDS011;10749;46.296;7.524;2023-02-15T16:04:50;13.53;;;6.20;;
21181;SDS011;10749;46.296;7.524;2023-02-15T16:09:41;26.67;;;11.30;;
21181;SDS011;10749;46.296;7.524;2023-02-15T16:12:17;14.30;;;7.33;;
21181;SDS011;10749;46.296;7.524;2023-02-15T16:14:44;17.80;;;7.50;;
21181;SDS011;10749;46.296;7.524;2023-02-15T16:17:17;16.40;;;7.73;;
21181;SDS011;10749;46.296;7.524;2023-02-15T16:19:47;14.53;;;7.00;;
21181;SDS011;10749;46.296;7.524;2023-02-15T16:22:22;12.83;;;6.30;;
21181;SDS011;10749;46.296;7.524;2023-02-15T16:27:37;7.63;;;4.30;;
21181;SDS011;10749;46.296;7.524;2023-02-15T16:33:05;10.30;;;4.93;;
21181;SDS011;10749;46.296;7.524;2023-02-15T16:35:33;10.83;;;5.27;;
21181;SDS011;10749;46.296;7.524;2023-02-15T16:37:59;9.50;;;5.23;;
21181;SDS011;10749;46.296;7.524;2023-02-15T16:42:51;13.20;;;5.53;;
21181;SDS011;10749;46.296;7.524;2023-02-15T16:45:20;9.00;;;5.43;;
21181;SDS011;10749;46.296;7.524;2023-02-15T16:47:49;9.43;;;5.50;;
21181;SDS011;10749;46.296;7.524;2023-02-15T16:50:19;9.77;;;5.83;;
21181;SDS011;10749;46.296;7.524;2023-02-15T16:52:49;10.00;;;6.00;;
21181;SDS011;10749;46.296;7.524;2023-02-15T16:55:21;9.30;;;6.37;;
21181;SDS011;10749;46.296;7.524;2023-02-15T16:57:47;10.07;;;5.57;;
21181;SDS011;10749;46.296;7.524;2023-02-15T17:00:18;12.17;;;5.43;;
21181;SDS011;10749;46.296;7.524;2023-02-15T17:05:42;11.87;;;5.70;;
21181;SDS011;10749;46.296;7.524;2023-02-15T17:08:18;9.90;;;6.23;;
21181;SDS011;10749;46.296;7.524;2023-02-15T17:10:45;12.30;;;5.93;;
21181;SDS011;10749;46.296;7.524;2023-02-15T17:13:27;11.13;;;6.00;;
21181;SDS011;10749;46.296;7.524;2023-02-15T17:18:24;7.67;;;5.40;;
21181;SDS011;10749;46.296;7.524;2023-02-15T17:20:53;12.20;;;6.20;;
21181;SDS011;10749;46.296;7.524;2023-02-15T17:26:22;12.43;;;5.60;;
21181;SDS011;10749;46.296;7.524;2023-02-15T17:28:51;11.40;;;5.67;;
21181;SDS011;10749;46.296;7.524;2023-02-15T17:31:18;9.67;;;5.83;;
21181;SDS011;10749;46.296;7.524;2023-02-15T17:33:44;9.90;;;5.50;;
21181;SDS011;10749;46.296;7.524;2023-02-15T17:36:14;9.77;;;5.00;;
21181;SDS011;10749;46.296;7.524;2023-02-15T17:41:21;11.27;;;4.97;;
21181;SDS011;10749;46.296;7.524;2023-02-15T17:43:47;8.70;;;4.77;;
21181;SDS011;10749;46.296;7.524;2023-02-15T17:46:12;8.43;;;5.13;;
21181;SDS011;10749;46.296;7.524;2023-02-15T17:48:39;8.93;;;4.97;;
21181;SDS011;10749;46.296;7.524;2023-02-15T17:51:06;6.77;;;4.30;;
21181;SDS011;10749;46.296;7.524;2023-02-15T17:53:36;9.17;;;4.33;;
21181;SDS011;10749;46.296;7.524;2023-02-15T17:56:02;10.73;;;4.60;;
21181;SDS011;10749;46.296;7.524;2023-02-15T17:58:34;13.40;;;5.00;;
21181;SDS011;10749;46.296;7.524;2023-02-15T18:00:59;9.97;;;5.30;;
21181;SDS011;10749;46.296;7.524;2023-02-15T18:03:49;11.50;;;5.37;;
21181;SDS011;10749;46.296;7.524;2023-02-15T18:06:36;10.60;;;5.17;;
21181;SDS011;10749;46.296;7.524;2023-02-15T18:09:22;11.97;;;5.47;;